createdAt,value
2023-01-25T00:02:13.496Z,3.00
2023-01-25T00:12:18.588Z,3.10
2023-01-25T00:22:23.258Z,3.00
2023-01-25T00:32:43.637Z,2.90
2023-01-25T00:42:47.401Z,2.90
2023-01-25T00:52:52.409Z,2.90
2023-01-25T01:02:56.768Z,3.00
2023-01-25T01:13:01.801Z,3.00
2023-01-25T01:23:05.479Z,2.90
2023-01-25T01:33:10.563Z,2.90
2023-01-25T01:43:19.946Z,2.90
2023-01-25T01:53:27.137Z,3.00
2023-01-25T02:03:31.763Z,3.00
2023-01-25T02:13:37.293Z,3.00
2023-01-25T02:23:48.500Z,3.00
2023-01-25T02:33:53.666Z,3.00
2023-01-25T02:43:57.299Z,3.10
2023-01-25T02:54:03.872Z,3.00
2023-01-25T03:04:08.229Z,2.90
2023-01-25T03:14:13.342Z,3.00
2023-01-25T03:24:17.072Z,3.00
2023-01-25T03:34:22.233Z,3.00
2023-01-25T03:44:26.011Z,2.90
2023-01-25T03:54:31.140Z,2.70
2023-01-25T04:04:34.799Z,2.80
2023-01-25T04:14:44.810Z,2.60
2023-01-25T04:24:48.784Z,2.60
2023-01-25T04:34:53.867Z,2.50
2023-01-25T04:44:57.491Z,2.50
2023-01-25T04:55:02.564Z,2.60
2023-01-25T05:05:08.037Z,2.60
2023-01-25T05:15:13.557Z,2.80
2023-01-25T05:25:35.345Z,2.50
2023-01-25T05:35:40.676Z,2.70
2023-01-25T05:45:44.313Z,2.30
2023-01-25T05:55:49.428Z,2.40
2023-01-25T06:05:56.679Z,2.40
2023-01-25T06:16:03.107Z,2.40
2023-01-25T06:26:09.875Z,2.30
2023-01-25T06:36:16.688Z,2.40
2023-01-25T06:46:20.880Z,2.50
2023-01-25T06:56:27.763Z,2.50
2023-01-25T07:06:34.993Z,2.30
2023-01-25T07:16:40.161Z,2.00
2023-01-25T07:26:44.293Z,2.10
2023-01-25T07:36:49.713Z,2.10
2023-01-25T07:46:55.212Z,1.90
2023-01-25T07:57:00.809Z,2.10
2023-01-25T08:07:04.567Z,2.10
2023-01-25T08:17:09.629Z,2.20
2023-01-25T08:27:13.368Z,2.30
2023-01-25T08:37:18.588Z,2.10
2023-01-25T08:47:22.268Z,2.00
2023-01-25T08:57:27.583Z,2.20
2023-01-25T09:07:32.364Z,2.20
2023-01-25T09:17:38.954Z,2.20
2023-01-25T09:27:42.859Z,2.00
2023-01-25T09:37:52.582Z,2.10
2023-01-25T09:48:01.907Z,2.00
2023-01-25T09:58:15.622Z,2.00
2023-01-25T10:08:29.184Z,2.30
2023-01-25T10:18:47.559Z,2.20
2023-01-25T10:28:58.772Z,2.10
2023-01-25T10:39:07.444Z,2.10
2023-01-25T10:49:24.514Z,2.50
2023-01-25T10:59:30.120Z,2.90
2023-01-25T11:09:38.025Z,2.90
2023-01-25T11:19:43.307Z,2.50
2023-01-25T11:29:47.700Z,2.20
2023-01-25T11:40:09.016Z,2.50
2023-01-25T11:50:22.154Z,2.30
2023-01-25T12:00:54.987Z,2.50
2023-01-25T12:11:07.235Z,2.40
2023-01-25T12:21:33.089Z,2.40
2023-01-25T12:31:52.642Z,2.30
2023-01-25T12:42:04.522Z,2.30
2023-01-25T12:52:19.559Z,2.30
2023-01-25T13:02:44.328Z,2.20
2023-01-25T13:12:56.701Z,2.10
2023-01-25T13:23:02.026Z,2.00
2023-01-25T13:33:07.776Z,2.20
2023-01-25T13:43:20.922Z,2.40
2023-01-25T13:53:29.460Z,2.10
2023-01-25T14:03:38.247Z,1.90
2023-01-25T14:14:01.150Z,2.30
2023-01-25T14:24:12.860Z,2.40
2023-01-25T14:34:19.745Z,2.10
2023-01-25T14:44:25.778Z,2.00
2023-01-25T14:54:33.263Z,2.00
2023-01-25T15:04:38.419Z,1.90
2023-01-25T15:14:49.264Z,1.90
2023-01-25T15:24:58.372Z,1.90
2023-01-25T15:35:02.394Z,2.20
2023-01-25T15:45:10.298Z,2.00
2023-01-25T15:55:15.261Z,1.80
2023-01-25T16:05:20.303Z,1.70
2023-01-25T16:15:23.978Z,1.70
2023-01-25T16:25:29.177Z,1.60
2023-01-25T16:35:32.871Z,1.70
2023-01-25T16:45:39.785Z,1.70
2023-01-25T16:55:43.694Z,1.70
2023-01-25T17:05:48.676Z,1.80
2023-01-25T17:15:52.402Z,1.70
2023-01-25T17:25:57.526Z,1.50
2023-01-25T17:36:03.688Z,1.70
2023-01-25T17:46:18.828Z,3.00
2023-01-25T17:56:22.729Z,2.00
2023-01-25T18:06:30.665Z,2.10
2023-01-25T18:16:35.318Z,2.40
2023-01-25T18:26:42.253Z,2.30
2023-01-25T18:36:46.063Z,2.30
2023-01-25T18:46:51.528Z,2.30
2023-01-25T18:56:55.854Z,1.90
2023-01-25T19:07:01.847Z,1.80
2023-01-25T19:17:07.446Z,2.00
2023-01-25T19:27:12.558Z,1.70
2023-01-25T19:37:16.693Z,1.80
2023-01-25T19:47:22.062Z,1.70
2023-01-25T19:57:25.973Z,1.50
2023-01-25T20:07:32.434Z,1.70
2023-01-25T20:17:36.701Z,1.70
2023-01-25T20:27:41.795Z,1.50
2023-01-25T20:37:46.431Z,1.40
2023-01-25T20:47:52.697Z,1.60
2023-01-25T20:57:56.518Z,1.70
2023-01-25T21:08:01.549Z,1.60
2023-01-25T21:18:05.831Z,1.20
2023-01-25T21:28:10.824Z,1.20
2023-01-25T21:38:14.643Z,1.20
2023-01-25T21:48:39.638Z,1.20
2023-01-25T21:58:43.345Z,1.20
2023-01-25T22:08:48.492Z,1.30
2023-01-25T22:18:52.201Z,1.30
2023-01-25T22:28:59.057Z,1.50
2023-01-25T22:39:02.793Z,1.60
2023-01-25T22:49:07.770Z,1.70
2023-01-25T22:59:14.727Z,1.50
2023-01-25T23:09:19.729Z,1.20
2023-01-25T23:19:23.407Z,1.00
2023-01-25T23:29:28.513Z,1.20
2023-01-25T23:39:33.612Z,1.20
2023-01-25T23:49:38.819Z,1.00
2023-01-25T23:59:42.596Z,0.90
